createdAt,value
2023-07-01T00:02:06.632Z,94.16
2023-07-01T00:04:33.885Z,93.87
2023-07-01T00:07:01.260Z,94.11
2023-07-01T00:09:28.535Z,93.20
2023-07-01T00:11:55.559Z,93.71
2023-07-01T00:14:22.775Z,92.62
2023-07-01T00:16:49.876Z,93.15
2023-07-01T00:19:17.322Z,93.74
2023-07-01T00:21:44.680Z,92.88
2023-07-01T00:24:11.753Z,93.10
2023-07-01T00:26:38.936Z,93.50
2023-07-01T00:29:06.052Z,93.75
2023-07-01T00:31:34.093Z,93.91
2023-07-01T00:34:01.285Z,94.24
2023-07-01T00:36:28.573Z,93.94
2023-07-01T00:38:55.745Z,92.29
2023-07-01T00:41:22.832Z,93.29
2023-07-01T00:43:50.142Z,93.61
2023-07-01T00:46:18.025Z,92.83
2023-07-01T00:48:45.600Z,93.46
2023-07-01T00:51:13.574Z,93.55
2023-07-01T00:53:41.634Z,94.25
2023-07-01T00:56:09.373Z,94.02
2023-07-01T00:58:36.886Z,94.28
2023-07-01T01:01:10.543Z,94.58
2023-07-01T01:03:51.476Z,94.31
2023-07-01T01:06:40.434Z,94.58
2023-07-01T01:09:22.748Z,94.42
2023-07-01T01:11:52.472Z,94.22
2023-07-01T01:14:19.949Z,95.62
2023-07-01T01:16:50.724Z,95.98
2023-07-01T01:19:37.411Z,96.16
2023-07-01T01:22:16.941Z,95.32
2023-07-01T01:24:48.845Z,95.45
2023-07-01T01:27:20.665Z,95.17
2023-07-01T01:29:48.034Z,94.69
2023-07-01T01:32:15.963Z,94.13
2023-07-01T01:34:43.210Z,94.54
2023-07-01T01:37:22.634Z,94.47
2023-07-01T01:39:55.056Z,95.22
2023-07-01T01:42:28.459Z,94.91
2023-07-01T01:44:57.561Z,94.87
2023-07-01T01:47:30.259Z,94.58
2023-07-01T01:50:02.444Z,95.02
2023-07-01T01:52:34.132Z,95.41
2023-07-01T01:55:02.425Z,94.76
2023-07-01T01:57:31.329Z,95.15
2023-07-01T01:59:58.546Z,94.62
2023-07-01T02:02:25.788Z,94.91
2023-07-01T02:04:53.117Z,94.43
2023-07-01T02:07:20.234Z,94.97
2023-07-01T02:09:47.358Z,95.85
2023-07-01T02:12:14.422Z,95.24
2023-07-01T02:14:41.528Z,94.22
2023-07-01T02:17:08.733Z,95.82
2023-07-01T02:19:55.670Z,95.78
2023-07-01T02:22:22.612Z,96.14
2023-07-01T02:24:49.709Z,96.71
2023-07-01T02:27:16.949Z,97.15
2023-07-01T02:29:45.800Z,96.66
2023-07-01T02:32:13.054Z,96.54
2023-07-01T02:34:40.094Z,96.09
2023-07-01T02:37:07.168Z,95.46
2023-07-01T02:39:34.342Z,95.29
2023-07-01T02:42:01.546Z,95.50
2023-07-01T02:44:28.566Z,95.39
2023-07-01T02:46:55.691Z,95.74
2023-07-01T02:49:22.804Z,95.13
2023-07-01T02:51:50.181Z,94.98
2023-07-01T02:54:17.248Z,94.58
2023-07-01T02:56:44.882Z,93.81
2023-07-01T02:59:12.884Z,93.63
2023-07-01T03:01:40.006Z,93.67
2023-07-01T03:04:19.545Z,92.95
2023-07-01T03:06:47.724Z,93.25
2023-07-01T03:09:15.928Z,93.30
2023-07-01T03:11:43.496Z,93.48
2023-07-01T03:14:10.801Z,93.13
2023-07-01T03:16:37.918Z,93.47
2023-07-01T03:19:06.968Z,93.92
2023-07-01T03:21:35.758Z,93.60
2023-07-01T03:24:03.013Z,93.64
2023-07-01T03:26:30.576Z,93.76
2023-07-01T03:28:58.109Z,94.00
2023-07-01T03:31:25.645Z,93.81
2023-07-01T03:33:52.840Z,93.26
2023-07-01T03:36:20.150Z,93.48
2023-07-01T03:38:47.173Z,93.58
2023-07-01T03:41:14.192Z,93.58
2023-07-01T03:43:41.386Z,93.68
2023-07-01T03:46:08.455Z,93.57
2023-07-01T03:48:35.659Z,93.08
2023-07-01T03:51:02.658Z,92.82
2023-07-01T03:53:29.764Z,92.99
2023-07-01T03:55:56.783Z,93.12
2023-07-01T03:58:26.317Z,92.87
2023-07-01T04:00:55.137Z,92.86
2023-07-01T04:03:25.414Z,91.76
2023-07-01T04:05:53.366Z,92.25
2023-07-01T04:08:21.988Z,93.50
2023-07-01T04:10:49.293Z,94.07
2023-07-01T04:13:16.610Z,94.53
2023-07-01T04:15:43.850Z,94.17
2023-07-01T04:18:10.845Z,95.20
2023-07-01T04:20:37.895Z,96.06
2023-07-01T04:23:05.007Z,96.20
2023-07-01T04:25:32.332Z,96.66
2023-07-01T04:28:00.429Z,96.14
2023-07-01T04:30:27.482Z,96.53
2023-07-01T04:32:54.553Z,96.37
2023-07-01T04:35:21.880Z,96.26
2023-07-01T04:37:48.886Z,96.03
2023-07-01T04:40:16.904Z,96.48
2023-07-01T04:42:52.963Z,96.73
2023-07-01T04:45:20.305Z,97.16
2023-07-01T04:47:49.080Z,97.60
2023-07-01T04:50:16.457Z,98.08
2023-07-01T04:52:45.151Z,97.86
2023-07-01T04:55:12.595Z,98.10
2023-07-01T04:57:40.073Z,98.45
2023-07-01T05:00:10.664Z,98.31
2023-07-01T05:02:38.588Z,98.64
2023-07-01T05:05:06.355Z,98.26
2023-07-01T05:07:33.940Z,98.17
2023-07-01T05:10:03.811Z,98.07
2023-07-01T05:12:32.019Z,98.60
2023-07-01T05:14:58.985Z,98.75
2023-07-01T05:17:26.008Z,98.75
2023-07-01T05:19:53.109Z,99.41
2023-07-01T05:22:20.247Z,99.79
2023-07-01T05:24:47.384Z,98.01
2023-07-01T05:27:14.508Z,96.54
2023-07-01T05:29:41.497Z,96.94
2023-07-01T05:32:08.879Z,97.15
2023-07-01T05:34:35.909Z,96.31
2023-07-01T05:37:03.232Z,95.63
2023-07-01T05:39:31.463Z,92.59
2023-07-01T05:41:58.795Z,92.44
2023-07-01T05:44:26.346Z,93.35
2023-07-01T05:46:54.368Z,93.52
2023-07-01T05:49:21.575Z,92.91
2023-07-01T05:51:48.665Z,93.36
2023-07-01T05:54:15.779Z,93.76
2023-07-01T05:56:43.065Z,92.80
2023-07-01T05:59:10.431Z,91.00
2023-07-01T06:01:37.657Z,92.71
2023-07-01T06:04:05.905Z,89.17
2023-07-01T06:06:33.363Z,91.20
2023-07-01T06:09:00.848Z,85.99
2023-07-01T06:11:28.173Z,87.09
2023-07-01T06:13:55.285Z,87.38
2023-07-01T06:16:22.606Z,89.04
2023-07-01T06:18:49.758Z,87.04
2023-07-01T06:21:16.899Z,85.84
2023-07-01T06:23:44.209Z,85.81
2023-07-01T06:26:11.399Z,85.48
2023-07-01T06:28:42.997Z,84.93
2023-07-01T06:31:10.235Z,82.26
2023-07-01T06:33:40.034Z,81.77
2023-07-01T06:36:10.350Z,82.74
2023-07-01T06:38:37.563Z,85.00
2023-07-01T06:41:04.827Z,83.71
2023-07-01T06:43:32.064Z,81.40
2023-07-01T06:46:00.811Z,82.93
2023-07-01T06:48:28.135Z,83.82
2023-07-01T06:50:55.178Z,82.84
2023-07-01T06:53:22.526Z,82.44
2023-07-01T06:55:50.163Z,84.27
2023-07-01T06:58:17.251Z,82.69
2023-07-01T07:00:44.928Z,79.95
2023-07-01T07:03:12.504Z,82.31
2023-07-01T07:05:39.650Z,80.29
2023-07-01T07:08:07.325Z,84.02
2023-07-01T07:10:35.131Z,83.65
2023-07-01T07:13:02.562Z,83.05
2023-07-01T07:15:29.672Z,82.22
2023-07-01T07:17:56.862Z,79.74
2023-07-01T07:20:24.156Z,80.12
2023-07-01T07:22:51.318Z,80.12
2023-07-01T07:25:18.478Z,80.87
2023-07-01T07:27:50.509Z,80.80
2023-07-01T07:30:17.672Z,79.34
2023-07-01T07:32:45.472Z,81.06
2023-07-01T07:35:12.638Z,79.51
2023-07-01T07:37:39.628Z,79.32
2023-07-01T07:40:09.017Z,78.05
2023-07-01T07:42:36.944Z,77.57
2023-07-01T07:45:05.229Z,78.37
2023-07-01T07:47:34.094Z,79.49
2023-07-01T07:50:02.880Z,76.54
2023-07-01T07:52:33.733Z,75.43
2023-07-01T07:55:01.607Z,75.98
2023-07-01T07:57:32.874Z,76.01
2023-07-01T08:00:00.797Z,75.11
2023-07-01T08:02:28.998Z,76.32
2023-07-01T08:04:56.176Z,76.32
2023-07-01T08:07:23.274Z,77.90
2023-07-01T08:09:50.308Z,74.68
2023-07-01T08:12:17.439Z,74.46
2023-07-01T08:14:44.511Z,74.08
2023-07-01T08:17:11.624Z,73.90
2023-07-01T08:19:38.814Z,74.40
2023-07-01T08:22:05.964Z,73.07
2023-07-01T08:24:33.052Z,73.19
2023-07-01T08:27:00.903Z,74.32
2023-07-01T08:29:28.210Z,74.78
2023-07-01T08:31:55.447Z,75.38
2023-07-01T08:34:22.796Z,78.66
2023-07-01T08:36:50.035Z,76.29
2023-07-01T08:39:17.817Z,75.88
2023-07-01T08:42:05.556Z,75.47
2023-07-01T08:44:36.067Z,75.08
2023-07-01T08:47:05.502Z,75.19
2023-07-01T08:49:35.383Z,75.15
2023-07-01T08:52:12.065Z,74.14
2023-07-01T08:54:40.251Z,72.50
2023-07-01T08:57:10.572Z,73.67
2023-07-01T08:59:37.862Z,74.28
2023-07-01T09:02:05.181Z,73.87
2023-07-01T09:04:32.574Z,75.01
2023-07-01T09:07:00.795Z,74.86
2023-07-01T09:09:28.477Z,72.99
2023-07-01T09:11:55.522Z,72.18
2023-07-01T09:14:23.171Z,72.42
2023-07-01T09:16:50.357Z,71.82
2023-07-01T09:19:22.840Z,73.44
2023-07-01T09:21:50.029Z,70.86
2023-07-01T09:24:17.258Z,71.19
2023-07-01T09:26:44.405Z,72.41
2023-07-01T09:29:16.540Z,71.25
2023-07-01T09:31:53.024Z,70.38
2023-07-01T09:34:20.423Z,71.78
2023-07-01T09:36:47.564Z,71.18
2023-07-01T09:39:14.724Z,71.89
2023-07-01T09:41:41.792Z,70.54
2023-07-01T09:44:20.471Z,71.75
2023-07-01T09:46:48.038Z,71.51
2023-07-01T09:49:15.741Z,71.01
2023-07-01T09:51:51.379Z,69.76
2023-07-01T09:54:30.041Z,69.66
2023-07-01T09:56:59.213Z,69.50
2023-07-01T09:59:27.779Z,70.07
2023-07-01T10:01:57.449Z,68.79
2023-07-01T10:04:30.313Z,69.84
2023-07-01T10:06:58.629Z,70.50
2023-07-01T10:09:28.455Z,65.67
2023-07-01T10:11:59.440Z,66.11
2023-07-01T10:14:29.694Z,67.49
2023-07-01T10:16:57.570Z,68.89
2023-07-01T10:19:35.557Z,70.25
2023-07-01T10:22:28.147Z,70.77
2023-07-01T10:25:07.219Z,72.23
2023-07-01T10:27:41.214Z,69.74
2023-07-01T10:30:10.293Z,70.83
2023-07-01T10:32:37.583Z,69.76
2023-07-01T10:35:04.724Z,69.53
2023-07-01T10:37:34.325Z,68.46
2023-07-01T10:40:09.109Z,68.43
2023-07-01T10:42:37.795Z,69.50
2023-07-01T10:45:14.459Z,70.20
2023-07-01T10:48:02.826Z,69.02
2023-07-01T10:50:30.652Z,67.53
2023-07-01T10:53:00.751Z,68.03
2023-07-01T10:55:48.942Z,68.93
2023-07-01T10:58:22.728Z,68.43
2023-07-01T11:00:55.681Z,68.31
2023-07-01T11:03:35.752Z,68.89
2023-07-01T11:06:08.826Z,69.16
2023-07-01T11:08:45.494Z,68.63
2023-07-01T11:11:18.599Z,69.49
2023-07-01T11:14:11.275Z,69.01
2023-07-01T11:16:39.803Z,69.29
2023-07-01T11:19:09.412Z,68.76
2023-07-01T11:21:38.102Z,67.71
2023-07-01T11:24:06.570Z,68.82
2023-07-01T11:26:36.744Z,70.19
2023-07-01T11:29:09.837Z,70.74
2023-07-01T11:31:41.374Z,71.54
2023-07-01T11:34:08.843Z,72.84
2023-07-01T11:36:40.928Z,70.43
2023-07-01T11:39:10.864Z,70.68
2023-07-01T11:41:39.828Z,69.98
2023-07-01T11:44:12.220Z,70.05
2023-07-01T11:46:42.130Z,69.60
2023-07-01T11:49:18.267Z,69.47
2023-07-01T11:51:50.595Z,70.57
2023-07-01T11:54:21.422Z,70.31
2023-07-01T11:56:49.814Z,71.42
2023-07-01T11:59:31.546Z,69.52
2023-07-01T12:02:00.915Z,71.33
2023-07-01T12:04:32.005Z,72.57
2023-07-01T12:07:09.489Z,71.31
2023-07-01T12:09:38.294Z,70.32
2023-07-01T12:12:05.948Z,71.56
2023-07-01T12:14:33.206Z,70.25
2023-07-01T12:17:01.833Z,70.05
2023-07-01T12:19:31.301Z,70.31
2023-07-01T12:22:00.411Z,70.19
2023-07-01T12:24:30.891Z,70.63
2023-07-01T12:26:59.057Z,70.75
2023-07-01T12:29:26.728Z,71.43
2023-07-01T12:31:55.502Z,70.78
2023-07-01T12:34:23.015Z,67.26
2023-07-01T12:36:50.094Z,69.17
2023-07-01T12:39:19.230Z,67.02
2023-07-01T12:41:53.761Z,67.96
2023-07-01T12:44:20.848Z,66.46
2023-07-01T12:46:48.159Z,69.99
2023-07-01T12:49:15.632Z,68.00
2023-07-01T12:51:44.325Z,67.25
2023-07-01T12:54:18.231Z,68.91
2023-07-01T12:56:46.571Z,66.16
2023-07-01T12:59:13.690Z,65.28
2023-07-01T13:01:44.156Z,65.92
2023-07-01T13:04:12.295Z,66.96
2023-07-01T13:06:40.738Z,68.37
2023-07-01T13:09:11.401Z,67.58
2023-07-01T13:11:40.334Z,69.30
2023-07-01T13:14:14.073Z,68.53
2023-07-01T13:16:43.412Z,70.60
2023-07-01T13:19:15.450Z,70.72
2023-07-01T13:21:45.635Z,68.53
2023-07-01T13:24:16.092Z,68.00
2023-07-01T13:26:45.536Z,66.86
2023-07-01T13:29:20.404Z,67.33
2023-07-01T13:31:49.401Z,67.96
2023-07-01T13:34:23.314Z,67.00
2023-07-01T13:36:54.186Z,67.55
2023-07-01T13:39:37.141Z,68.30
2023-07-01T13:42:04.606Z,70.13
2023-07-01T13:44:31.637Z,69.88
2023-07-01T13:46:59.050Z,69.50
2023-07-01T13:49:30.131Z,69.73
2023-07-01T13:51:57.694Z,69.53
2023-07-01T13:54:26.959Z,68.78
2023-07-01T13:57:02.588Z,69.50
2023-07-01T13:59:31.724Z,69.66
2023-07-01T14:02:12.028Z,69.53
2023-07-01T14:04:39.262Z,69.78
2023-07-01T14:07:07.102Z,66.96
2023-07-01T14:09:37.883Z,68.21
2023-07-01T14:12:05.414Z,66.85
2023-07-01T14:14:34.259Z,66.71
2023-07-01T14:17:02.268Z,67.91
2023-07-01T14:19:29.786Z,67.46
2023-07-01T14:21:58.101Z,68.07
2023-07-01T14:24:28.777Z,68.01
2023-07-01T14:27:00.908Z,68.65
2023-07-01T14:29:28.740Z,67.98
2023-07-01T14:31:57.988Z,68.65
2023-07-01T14:34:32.900Z,66.57
2023-07-01T14:37:00.996Z,66.23
2023-07-01T14:39:30.627Z,65.97
2023-07-01T14:41:57.662Z,66.51
2023-07-01T14:44:25.419Z,66.72
2023-07-01T14:46:52.661Z,65.29
2023-07-01T14:49:19.853Z,67.11
2023-07-01T14:51:47.033Z,66.16
2023-07-01T14:54:14.128Z,65.47
2023-07-01T14:56:41.253Z,66.28
2023-07-01T14:59:08.394Z,65.70
2023-07-01T15:01:35.629Z,66.21
2023-07-01T15:04:02.899Z,67.78
2023-07-01T15:06:30.547Z,66.03
2023-07-01T15:08:57.729Z,66.47
2023-07-01T15:11:24.782Z,67.14
2023-07-01T15:13:51.859Z,66.22
2023-07-01T15:16:20.688Z,66.44
2023-07-01T15:18:48.050Z,66.11
2023-07-01T15:21:15.199Z,66.10
2023-07-01T15:23:42.392Z,64.97
2023-07-01T15:26:09.469Z,63.47
2023-07-01T15:28:36.685Z,63.18
2023-07-01T15:31:07.505Z,62.62
2023-07-01T15:33:35.294Z,62.16
2023-07-01T15:36:02.671Z,63.05
2023-07-01T15:38:30.158Z,63.70
2023-07-01T15:40:57.350Z,63.45
2023-07-01T15:43:24.506Z,63.71
2023-07-01T15:45:53.072Z,64.86
2023-07-01T15:48:22.525Z,63.11
2023-07-01T15:50:49.685Z,64.88
2023-07-01T15:53:17.734Z,64.92
2023-07-01T15:55:45.076Z,65.36
2023-07-01T15:58:12.288Z,65.97
2023-07-01T16:00:40.255Z,66.68
2023-07-01T16:03:09.669Z,66.65
2023-07-01T16:05:37.551Z,65.65
2023-07-01T16:08:06.616Z,65.90
2023-07-01T16:10:34.008Z,68.98
2023-07-01T16:13:07.314Z,68.46
2023-07-01T16:15:56.274Z,69.00
2023-07-01T16:18:43.386Z,70.58
2023-07-01T16:21:13.697Z,71.32
2023-07-01T16:23:48.085Z,71.42
2023-07-01T16:26:43.686Z,70.47
2023-07-01T16:29:11.015Z,70.20
2023-07-01T16:31:41.017Z,71.45
2023-07-01T16:34:09.504Z,70.59
2023-07-01T16:36:37.149Z,69.96
2023-07-01T16:39:13.558Z,70.00
2023-07-01T16:41:40.853Z,70.00
2023-07-01T16:44:07.889Z,71.08
2023-07-01T16:46:39.745Z,70.10
2023-07-01T16:49:09.653Z,70.78
2023-07-01T16:51:38.365Z,69.11
2023-07-01T16:54:12.848Z,70.75
2023-07-01T16:56:44.302Z,71.24
2023-07-01T16:59:24.164Z,71.58
2023-07-01T17:01:52.173Z,72.13
2023-07-01T17:04:33.424Z,72.00
2023-07-01T17:07:01.068Z,72.43
2023-07-01T17:09:38.240Z,72.87
2023-07-01T17:12:07.076Z,71.03
2023-07-01T17:14:44.286Z,71.33
2023-07-01T17:17:35.050Z,72.88
2023-07-01T17:20:04.969Z,73.03
2023-07-01T17:22:35.534Z,73.52
2023-07-01T17:25:07.053Z,73.38
2023-07-01T17:27:34.507Z,73.84
2023-07-01T17:30:02.184Z,73.80
2023-07-01T17:32:35.306Z,72.29
2023-07-01T17:35:24.682Z,73.21
2023-07-01T17:37:52.774Z,73.59
2023-07-01T17:40:21.449Z,72.95
2023-07-01T17:42:52.920Z,72.77
2023-07-01T17:45:20.936Z,73.31
2023-07-01T17:47:48.963Z,73.36
2023-07-01T17:50:21.408Z,73.91
2023-07-01T17:52:51.234Z,74.35
2023-07-01T17:55:18.775Z,73.65
2023-07-01T17:57:56.143Z,73.56
2023-07-01T18:00:25.790Z,73.61
2023-07-01T18:02:55.106Z,73.43
2023-07-01T18:05:22.740Z,73.06
2023-07-01T18:07:50.103Z,73.38
2023-07-01T18:10:20.041Z,73.14
2023-07-01T18:12:47.240Z,73.23
2023-07-01T18:15:16.319Z,74.06
2023-07-01T18:17:46.176Z,73.98
2023-07-01T18:20:14.002Z,74.24
2023-07-01T18:22:41.138Z,74.29
2023-07-01T18:25:08.544Z,74.10
2023-07-01T18:27:35.881Z,74.12
2023-07-01T18:30:05.902Z,74.74
2023-07-01T18:32:42.628Z,75.29
2023-07-01T18:35:13.159Z,75.00
2023-07-01T18:37:40.245Z,75.02
2023-07-01T18:40:07.830Z,75.00
2023-07-01T18:42:34.858Z,74.67
2023-07-01T18:45:02.119Z,74.86
2023-07-01T18:47:31.104Z,75.73
2023-07-01T18:49:58.209Z,75.84
2023-07-01T18:52:25.429Z,75.71
2023-07-01T18:54:52.897Z,75.99
2023-07-01T18:57:23.419Z,75.87
2023-07-01T18:59:50.751Z,76.24
2023-07-01T19:02:19.064Z,75.74
2023-07-01T19:04:46.323Z,75.34
2023-07-01T19:07:14.182Z,75.70
2023-07-01T19:09:41.465Z,76.20
2023-07-01T19:12:09.037Z,75.97
2023-07-01T19:14:36.112Z,76.91
2023-07-01T19:17:04.027Z,76.87
2023-07-01T19:19:31.303Z,77.27
2023-07-01T19:21:58.399Z,77.10
2023-07-01T19:24:25.539Z,77.30
2023-07-01T19:26:52.590Z,77.25
2023-07-01T19:29:27.666Z,77.17
2023-07-01T19:31:55.747Z,77.16
2023-07-01T19:34:23.070Z,77.14
2023-07-01T19:36:50.116Z,77.93
2023-07-01T19:39:17.210Z,77.83
2023-07-01T19:41:44.285Z,77.52
2023-07-01T19:44:11.379Z,77.52
2023-07-01T19:46:38.902Z,78.56
2023-07-01T19:49:06.138Z,79.60
2023-07-01T19:51:33.434Z,79.64
2023-07-01T19:54:00.636Z,79.79
2023-07-01T19:56:27.891Z,80.02
2023-07-01T19:58:55.092Z,79.92
2023-07-01T20:01:22.235Z,80.51
2023-07-01T20:03:50.227Z,79.95
2023-07-01T20:06:17.491Z,80.16
2023-07-01T20:08:44.544Z,79.90
2023-07-01T20:11:11.659Z,80.69
2023-07-01T20:13:38.867Z,80.90
2023-07-01T20:16:06.365Z,81.00
2023-07-01T20:18:34.274Z,81.63
2023-07-01T20:21:01.563Z,81.71
2023-07-01T20:23:28.672Z,81.26
2023-07-01T20:25:55.786Z,81.33
2023-07-01T20:28:22.957Z,81.36
2023-07-01T20:30:50.066Z,81.61
2023-07-01T20:33:17.177Z,81.36
2023-07-01T20:35:44.479Z,81.60
2023-07-01T20:38:11.567Z,81.84
2023-07-01T20:40:38.786Z,81.99
2023-07-01T20:43:10.672Z,81.79
2023-07-01T20:45:37.776Z,81.72
2023-07-01T20:48:05.381Z,81.63
2023-07-01T20:50:32.657Z,82.23
2023-07-01T20:52:59.790Z,81.95
2023-07-01T20:55:26.902Z,82.25
2023-07-01T20:57:54.065Z,82.02
2023-07-01T21:00:21.426Z,82.17
2023-07-01T21:02:49.378Z,82.16
2023-07-01T21:05:16.653Z,82.18
2023-07-01T21:07:43.930Z,82.20
2023-07-01T21:10:12.362Z,82.85
2023-07-01T21:12:40.002Z,82.62
2023-07-01T21:15:07.647Z,83.06
2023-07-01T21:17:35.015Z,83.14
2023-07-01T21:20:02.307Z,83.38
2023-07-01T21:22:32.899Z,83.61
2023-07-01T21:25:00.059Z,83.40
2023-07-01T21:27:54.343Z,83.58
2023-07-01T21:30:30.719Z,83.65
2023-07-01T21:32:58.012Z,83.70
2023-07-01T21:35:30.191Z,83.83
2023-07-01T21:37:58.220Z,83.52
2023-07-01T21:40:28.829Z,84.15
2023-07-01T21:42:58.172Z,83.57
2023-07-01T21:45:33.164Z,83.16
2023-07-01T21:48:01.016Z,83.94
2023-07-01T21:50:28.068Z,84.85
2023-07-01T21:52:55.828Z,84.87
2023-07-01T21:55:23.073Z,85.40
2023-07-01T21:57:58.974Z,84.93
2023-07-01T22:00:26.170Z,85.17
2023-07-01T22:02:58.667Z,84.87
2023-07-01T22:05:26.058Z,84.38
2023-07-01T22:07:53.676Z,85.35
2023-07-01T22:10:20.717Z,85.00
2023-07-01T22:12:47.975Z,85.66
2023-07-01T22:15:17.526Z,85.52
2023-07-01T22:17:45.118Z,85.66
2023-07-01T22:20:12.453Z,85.93
2023-07-01T22:22:39.500Z,85.44
2023-07-01T22:25:06.817Z,85.27
2023-07-01T22:27:34.774Z,85.52
2023-07-01T22:30:02.054Z,85.13
2023-07-01T22:32:33.637Z,84.82
2023-07-01T22:35:00.828Z,85.12
2023-07-01T22:37:28.005Z,84.84
2023-07-01T22:39:55.127Z,84.86
2023-07-01T22:42:22.560Z,84.80
2023-07-01T22:44:49.944Z,85.39
2023-07-01T22:47:17.156Z,84.92
2023-07-01T22:49:44.330Z,85.08
2023-07-01T22:52:11.371Z,85.59
2023-07-01T22:54:39.144Z,85.32
2023-07-01T22:57:06.480Z,85.47
2023-07-01T22:59:33.504Z,85.56
2023-07-01T23:02:00.759Z,86.20
2023-07-01T23:04:28.031Z,86.19
2023-07-01T23:06:55.184Z,85.60
2023-07-01T23:09:22.229Z,86.55
2023-07-01T23:11:49.469Z,86.48
2023-07-01T23:14:16.462Z,86.46
2023-07-01T23:16:43.638Z,86.55
2023-07-01T23:19:12.414Z,86.95
2023-07-01T23:21:39.520Z,86.49
2023-07-01T23:24:06.674Z,86.84
2023-07-01T23:26:36.600Z,87.22
2023-07-01T23:29:04.749Z,86.90
2023-07-01T23:31:31.922Z,87.46
2023-07-01T23:33:59.072Z,87.29
2023-07-01T23:36:26.253Z,87.24
2023-07-01T23:38:53.507Z,87.19
2023-07-01T23:41:20.557Z,87.29
2023-07-01T23:43:47.607Z,87.26
2023-07-01T23:46:14.843Z,87.11
2023-07-01T23:48:41.890Z,87.06
2023-07-01T23:51:08.934Z,87.54
2023-07-01T23:53:36.012Z,87.25
2023-07-01T23:56:05.457Z,87.59
2023-07-01T23:58:33.448Z,87.13
